Terminal Aerodrome Forecast
Issued by NWS

Home | Current Version | Previous Version | Text Only | Print | Product List | Glossary On
Versions: 1 2 3 4 5 6 7 8 9 10 11 12 13 14 15
000
FTUS44 KSJT 300100 AAA
TAFBBD
TAF AMD
KBBD 300125Z 3001/3024 14010KT P6SM SKC
     FM300200 01015G23KT P6SM SKC
     FM300400 35005KT P6SM SKC
     FM301500 01005KT P6SM SCT035
     FM301800 12005KT P6SM SCT040=

USA.gov is the U.S. government's official web portal to all federal, state and local government web resources and services.